createdAt,value
2023-03-19T00:01:05.856Z,8.60
2023-03-19T00:03:07.422Z,8.58
2023-03-19T00:05:10.480Z,8.54
2023-03-19T00:07:12.520Z,8.50
2023-03-19T00:09:14.379Z,8.48
2023-03-19T00:11:17.461Z,8.45
2023-03-19T00:13:20.462Z,8.43
2023-03-19T00:15:22.144Z,8.42
2023-03-19T00:17:26.562Z,8.41
2023-03-19T00:19:28.622Z,8.40
2023-03-19T00:21:30.779Z,8.39
2023-03-19T00:23:32.382Z,8.38
2023-03-19T00:25:34.384Z,8.35
2023-03-19T00:27:38.269Z,8.34
2023-03-19T00:29:40.167Z,8.31
2023-03-19T00:31:43.289Z,8.28
2023-03-19T00:33:45.111Z,8.26
2023-03-19T00:35:47.187Z,8.24
2023-03-19T00:37:49.081Z,8.21
2023-03-19T00:39:50.723Z,8.18
2023-03-19T00:41:52.291Z,8.15
2023-03-19T00:43:56.941Z,8.12
2023-03-19T00:45:59.076Z,8.10
2023-03-19T00:48:00.797Z,8.07
2023-03-19T00:50:02.574Z,8.04
2023-03-19T00:52:04.693Z,8.01
2023-03-19T00:54:06.778Z,7.99
2023-03-19T00:56:08.701Z,7.97
2023-03-19T00:58:10.644Z,7.94
2023-03-19T01:02:16.633Z,7.87
2023-03-19T01:04:19.478Z,7.84
2023-03-19T01:06:21.302Z,7.81
2023-03-19T01:08:23.147Z,7.78
2023-03-19T01:10:25.153Z,7.74
2023-03-19T01:12:27.096Z,7.69
2023-03-19T01:14:29.203Z,7.65
2023-03-19T01:16:32.609Z,7.63
2023-03-19T01:18:34.736Z,7.60
2023-03-19T01:20:38.036Z,7.57
2023-03-19T01:22:41.635Z,7.55
2023-03-19T01:24:43.660Z,7.51
2023-03-19T01:26:45.701Z,7.49
2023-03-19T01:28:47.885Z,7.47
2023-03-19T01:30:49.856Z,7.43
2023-03-19T01:32:53.495Z,7.41
2023-03-19T01:34:55.322Z,7.39
2023-03-19T01:36:57.404Z,7.35
2023-03-19T01:39:01.368Z,7.34
2023-03-19T01:41:04.323Z,7.34
2023-03-19T01:43:16.670Z,7.33
2023-03-19T01:45:35.081Z,7.31
2023-03-19T01:47:41.225Z,7.28
2023-03-19T01:49:47.394Z,7.27
2023-03-19T01:51:49.289Z,7.26
2023-03-19T01:53:55.327Z,7.23
2023-03-19T01:56:02.620Z,7.23
2023-03-19T01:58:06.694Z,7.22
2023-03-19T02:00:10.326Z,7.21
2023-03-19T02:02:21.747Z,7.21
2023-03-19T02:04:26.867Z,7.18
2023-03-19T02:06:31.157Z,7.16
2023-03-19T02:08:34.204Z,7.14
2023-03-19T02:10:37.311Z,7.13
2023-03-19T02:12:39.526Z,7.11
2023-03-19T02:14:42.258Z,7.09
2023-03-19T02:16:44.669Z,7.08
2023-03-19T02:18:47.511Z,7.06
2023-03-19T02:20:54.952Z,7.03
2023-03-19T02:23:05.555Z,7.03
2023-03-19T02:25:13.320Z,7.01
2023-03-19T02:27:16.525Z,6.98
2023-03-19T02:29:18.350Z,6.96
2023-03-19T02:31:20.644Z,6.94
2023-03-19T02:33:22.512Z,6.93
2023-03-19T02:35:24.826Z,6.92
2023-03-19T02:37:31.206Z,6.90
2023-03-19T02:39:43.997Z,6.90
2023-03-19T02:41:46.959Z,6.88
2023-03-19T02:43:50.595Z,6.85
2023-03-19T02:45:52.472Z,6.83
2023-03-19T02:47:54.496Z,6.82
2023-03-19T02:49:58.536Z,6.79
2023-03-19T02:52:00.271Z,6.76
2023-03-19T02:54:01.856Z,6.73
2023-03-19T02:56:04.259Z,6.70
2023-03-19T02:58:07.418Z,6.67
2023-03-19T03:00:13.064Z,6.65
2023-03-19T03:02:15.057Z,6.62
2023-03-19T03:04:16.781Z,6.60
2023-03-19T03:06:18.422Z,6.59
2023-03-19T03:08:20.204Z,6.56
2023-03-19T03:10:22.354Z,6.54
2023-03-19T03:12:24.373Z,6.52
2023-03-19T03:14:26.734Z,6.50
2023-03-19T03:16:32.430Z,6.47
2023-03-19T03:18:35.547Z,6.43
2023-03-19T03:20:37.514Z,6.42
2023-03-19T03:22:41.309Z,6.40
2023-03-19T03:24:45.819Z,6.40
2023-03-19T03:26:47.493Z,6.38
2023-03-19T03:28:49.570Z,6.38
2023-03-19T03:30:51.258Z,6.38
2023-03-19T03:32:54.305Z,6.36
2023-03-19T03:35:00.794Z,6.36
2023-03-19T03:37:04.025Z,6.34
2023-03-19T03:39:06.055Z,6.33
2023-03-19T03:41:08.679Z,6.33
2023-03-19T03:43:10.673Z,6.32
2023-03-19T03:45:14.040Z,6.31
2023-03-19T03:47:16.106Z,6.29
2023-03-19T03:49:19.283Z,6.27
2023-03-19T03:51:21.061Z,6.27
2023-03-19T03:53:22.670Z,6.25
2023-03-19T03:55:24.328Z,6.25
2023-03-19T03:57:26.587Z,6.24
2023-03-19T03:59:31.417Z,6.24
2023-03-19T04:01:33.576Z,6.23
2023-03-19T04:03:35.281Z,6.24
2023-03-19T04:05:38.311Z,6.23
2023-03-19T04:07:39.871Z,6.21
2023-03-19T04:09:42.048Z,6.21
2023-03-19T04:11:44.108Z,6.19
2023-03-19T04:13:45.772Z,6.17
2023-03-19T04:15:48.415Z,6.16
2023-03-19T04:17:51.090Z,6.15
2023-03-19T04:19:53.124Z,6.15
2023-03-19T04:21:56.200Z,6.14
2023-03-19T04:23:59.223Z,6.15
2023-03-19T04:26:02.242Z,6.15
2023-03-19T04:28:04.155Z,6.15
2023-03-19T04:30:06.430Z,6.14
2023-03-19T04:32:08.588Z,6.15
2023-03-19T04:34:10.410Z,6.15
2023-03-19T04:36:13.026Z,6.16
2023-03-19T04:38:16.774Z,6.17
2023-03-19T04:40:18.428Z,6.17
2023-03-19T04:42:20.313Z,6.20
2023-03-19T04:44:21.980Z,6.20
2023-03-19T04:46:24.022Z,6.21
2023-03-19T04:48:26.198Z,6.23
2023-03-19T04:50:28.779Z,6.24
2023-03-19T04:52:30.629Z,6.26
2023-03-19T04:54:34.289Z,6.27
2023-03-19T04:56:35.848Z,6.28
2023-03-19T04:58:38.768Z,6.28
2023-03-19T05:00:41.966Z,6.30
2023-03-19T05:02:43.811Z,6.30
2023-03-19T05:04:45.350Z,6.32
2023-03-19T05:06:46.934Z,6.34
2023-03-19T05:08:48.742Z,6.35
2023-03-19T05:10:53.575Z,6.38
2023-03-19T05:12:55.348Z,6.41
2023-03-19T05:14:57.292Z,6.44
2023-03-19T05:16:59.549Z,6.46
2023-03-19T05:19:01.838Z,6.48
2023-03-19T05:21:03.697Z,6.50
2023-03-19T05:23:05.945Z,6.52
2023-03-19T05:25:08.111Z,6.55
2023-03-19T05:27:11.593Z,6.57
2023-03-19T05:29:13.201Z,6.59
2023-03-19T05:31:14.943Z,6.61
2023-03-19T05:33:17.143Z,6.64
2023-03-19T05:35:18.959Z,6.67
2023-03-19T05:37:20.905Z,6.69
2023-03-19T05:39:22.713Z,6.71
2023-03-19T05:41:24.302Z,6.73
2023-03-19T05:43:29.616Z,6.77
2023-03-19T05:45:31.433Z,6.80
2023-03-19T05:47:33.334Z,6.84
2023-03-19T05:49:37.436Z,6.88
2023-03-19T05:51:39.455Z,6.92
2023-03-19T05:53:41.079Z,6.96
2023-03-19T05:55:43.219Z,7.00
2023-03-19T05:57:45.628Z,7.04
2023-03-19T05:59:48.617Z,7.09
2023-03-19T06:01:50.345Z,7.13
2023-03-19T06:03:52.227Z,7.18
2023-03-19T06:05:53.834Z,7.23
2023-03-19T06:07:55.962Z,7.24
2023-03-19T06:09:57.943Z,7.30
2023-03-19T06:12:00.312Z,7.35
2023-03-19T06:14:02.678Z,7.40
2023-03-19T06:16:07.261Z,7.44
2023-03-19T06:18:09.115Z,7.50
2023-03-19T06:20:11.936Z,7.54
2023-03-19T06:22:13.792Z,7.58
2023-03-19T06:24:15.470Z,7.64
2023-03-19T06:26:17.096Z,7.68
2023-03-19T06:28:18.945Z,7.72
2023-03-19T06:30:20.976Z,7.77
2023-03-19T06:32:24.454Z,7.82
2023-03-19T06:34:26.136Z,7.88
2023-03-19T06:36:27.729Z,7.92
2023-03-19T06:38:29.795Z,7.98
2023-03-19T06:40:31.696Z,8.02
2023-03-19T06:42:34.805Z,8.06
2023-03-19T06:44:36.773Z,8.10
2023-03-19T06:46:43.191Z,8.12
2023-03-19T06:48:46.332Z,8.14
2023-03-19T06:50:51.772Z,8.15
2023-03-19T06:52:53.348Z,8.17
2023-03-19T06:54:55.178Z,8.19
2023-03-19T06:56:57.537Z,8.20
2023-03-19T06:58:59.149Z,8.20
2023-03-19T07:01:01.133Z,8.21
2023-03-19T07:03:06.067Z,8.21
2023-03-19T07:05:12.398Z,8.22
2023-03-19T07:07:14.284Z,8.23
2023-03-19T07:09:15.932Z,8.24
2023-03-19T07:11:17.540Z,8.27
2023-03-19T07:13:19.411Z,8.30
2023-03-19T07:15:21.033Z,8.34
2023-03-19T07:17:23.160Z,8.39
2023-03-19T07:19:24.701Z,8.42
2023-03-19T07:21:27.790Z,8.46
2023-03-19T07:23:31.831Z,8.51
2023-03-19T07:25:34.002Z,8.55
2023-03-19T07:27:37.084Z,8.60
2023-03-19T07:29:38.862Z,8.65
2023-03-19T07:31:40.949Z,8.69
2023-03-19T07:33:42.889Z,8.74
2023-03-19T07:35:44.540Z,8.77
2023-03-19T07:37:47.570Z,8.84
2023-03-19T07:39:49.349Z,8.88
2023-03-19T07:41:50.905Z,8.94
2023-03-19T07:43:52.704Z,8.99
2023-03-19T07:45:54.348Z,9.04
2023-03-19T07:47:56.063Z,9.09
2023-03-19T07:49:57.880Z,9.13
2023-03-19T07:51:59.701Z,9.16
2023-03-19T07:54:02.968Z,9.23
2023-03-19T07:56:05.471Z,9.28
2023-03-19T07:58:07.130Z,9.34
2023-03-19T08:00:10.065Z,9.38
2023-03-19T08:02:13.431Z,9.44
2023-03-19T08:04:15.881Z,9.49
2023-03-19T08:06:19.084Z,9.52
2023-03-19T08:08:21.339Z,9.56
2023-03-19T08:10:24.256Z,9.60
2023-03-19T08:12:26.059Z,9.64
2023-03-19T08:14:27.983Z,9.68
2023-03-19T08:16:29.641Z,9.73
2023-03-19T08:18:31.279Z,9.78
2023-03-19T08:20:34.928Z,9.85
2023-03-19T08:22:38.724Z,9.91
2023-03-19T08:24:40.801Z,9.98
2023-03-19T08:26:44.177Z,10.03
2023-03-19T08:28:46.052Z,10.10
2023-03-19T08:30:47.797Z,10.18
2023-03-19T08:32:49.639Z,10.24
2023-03-19T08:34:51.240Z,10.30
2023-03-19T08:36:53.965Z,10.37
2023-03-19T08:38:55.756Z,10.44
2023-03-19T08:40:57.577Z,10.52
2023-03-19T08:43:00.795Z,10.58
2023-03-19T08:45:02.890Z,10.64
2023-03-19T08:47:04.850Z,10.71
2023-03-19T08:49:06.682Z,10.78
2023-03-19T08:51:08.561Z,10.83
2023-03-19T08:53:12.312Z,10.89
2023-03-19T08:55:15.481Z,10.95
2023-03-19T08:57:17.328Z,11.01
2023-03-19T08:59:20.529Z,11.09
2023-03-19T09:01:22.620Z,11.16
2023-03-19T09:03:25.401Z,11.23
2023-03-19T09:05:29.652Z,11.31
2023-03-19T09:07:31.285Z,11.38
2023-03-19T09:09:33.185Z,11.47
2023-03-19T09:11:34.858Z,11.55
2023-03-19T09:13:37.210Z,11.63
2023-03-19T09:15:40.220Z,11.75
2023-03-19T09:17:41.903Z,11.90
2023-03-19T09:19:43.490Z,12.00
2023-03-19T09:21:45.347Z,12.10
2023-03-19T09:23:47.172Z,12.19
2023-03-19T09:25:49.261Z,12.27
2023-03-19T09:27:51.651Z,12.37
2023-03-19T09:29:53.438Z,12.48
2023-03-19T09:31:56.422Z,12.60
2023-03-19T09:33:58.169Z,12.75
2023-03-19T09:35:59.822Z,12.92
2023-03-19T09:38:02.058Z,13.10
2023-03-19T09:40:05.635Z,13.31
2023-03-19T09:42:24.444Z,13.49
2023-03-19T09:44:29.469Z,13.73
2023-03-19T09:46:40.888Z,13.98
2023-03-19T09:48:49.716Z,14.14
2023-03-19T09:50:51.554Z,14.33
2023-03-19T09:53:00.507Z,14.55
2023-03-19T09:55:11.815Z,14.76
2023-03-19T09:57:15.210Z,14.90
2023-03-19T09:59:17.048Z,15.05
2023-03-19T10:01:25.977Z,15.19
2023-03-19T10:03:44.913Z,15.33
2023-03-19T10:05:56.812Z,15.45
2023-03-19T10:08:21.672Z,15.58
2023-03-19T10:10:42.199Z,15.71
2023-03-19T10:12:55.374Z,15.84
2023-03-19T10:15:19.101Z,16.01
2023-03-19T10:17:27.688Z,16.14
2023-03-19T10:19:40.900Z,16.33
2023-03-19T10:21:51.027Z,16.48
2023-03-19T10:23:57.312Z,16.61
2023-03-19T10:26:00.212Z,16.72
2023-03-19T10:28:11.993Z,16.85
2023-03-19T10:30:16.304Z,16.97
2023-03-19T10:32:19.523Z,17.08
2023-03-19T10:34:28.860Z,17.20
2023-03-19T10:36:34.890Z,17.26
2023-03-19T10:38:43.515Z,17.33
2023-03-19T10:40:56.249Z,17.37
2023-03-19T10:43:06.854Z,17.41
2023-03-19T10:45:18.747Z,17.45
2023-03-19T10:47:26.243Z,17.51
2023-03-19T10:49:28.330Z,17.54
2023-03-19T10:51:31.152Z,17.59
2023-03-19T10:53:35.455Z,17.62
2023-03-19T10:55:39.193Z,17.66
2023-03-19T10:57:43.040Z,17.69
2023-03-19T10:59:45.979Z,17.72
2023-03-19T11:01:47.627Z,17.76
2023-03-19T11:03:52.750Z,17.83
2023-03-19T11:06:04.774Z,17.91
2023-03-19T11:08:34.545Z,17.98
2023-03-19T11:10:47.282Z,18.09
2023-03-19T11:12:54.781Z,18.25
2023-03-19T11:15:00.115Z,18.40
2023-03-19T11:17:07.220Z,18.58
2023-03-19T11:19:23.336Z,18.79
2023-03-19T11:21:29.726Z,18.97
2023-03-19T11:23:39.526Z,19.19
2023-03-19T11:25:47.919Z,19.39
2023-03-19T11:27:59.423Z,19.61
2023-03-19T11:30:01.997Z,19.68
2023-03-19T11:32:21.716Z,19.75
2023-03-19T11:34:33.942Z,19.81
2023-03-19T11:36:46.269Z,19.84
2023-03-19T11:38:58.270Z,19.84
2023-03-19T11:41:14.643Z,19.84
2023-03-19T11:43:36.342Z,19.87
2023-03-19T11:45:46.774Z,19.88
2023-03-19T11:48:01.131Z,19.89
2023-03-19T11:50:14.623Z,19.90
2023-03-19T11:52:23.685Z,19.93
2023-03-19T11:54:35.373Z,19.96
2023-03-19T11:56:44.910Z,20.12
2023-03-19T11:59:12.023Z,20.29
2023-03-19T12:01:28.463Z,20.44
2023-03-19T12:03:58.821Z,20.56
2023-03-19T12:06:04.560Z,20.59
2023-03-19T12:08:19.389Z,20.64
2023-03-19T12:10:39.497Z,20.68
2023-03-19T12:12:48.998Z,20.67
2023-03-19T12:15:04.606Z,20.67
2023-03-19T12:17:23.996Z,20.65
2023-03-19T12:19:47.929Z,20.64
2023-03-19T12:22:04.934Z,20.71
2023-03-19T12:24:18.735Z,20.81
2023-03-19T12:26:29.680Z,20.82
2023-03-19T12:28:38.971Z,20.91
2023-03-19T12:30:45.221Z,21.02
2023-03-19T12:33:02.948Z,21.11
2023-03-19T12:35:11.825Z,21.21
2023-03-19T12:37:19.986Z,21.30
2023-03-19T12:39:29.771Z,21.40
2023-03-19T12:41:37.317Z,21.51
2023-03-19T12:43:48.488Z,21.61
2023-03-19T12:45:58.259Z,21.71
2023-03-19T12:48:06.164Z,21.83
2023-03-19T12:50:12.087Z,21.92
2023-03-19T12:52:21.827Z,22.01
2023-03-19T12:54:27.573Z,22.06
2023-03-19T12:56:39.206Z,22.15
2023-03-19T12:58:53.597Z,22.23
2023-03-19T13:01:01.422Z,22.29
2023-03-19T13:03:10.438Z,22.36
2023-03-19T13:05:20.390Z,22.45
2023-03-19T13:07:27.029Z,22.52
2023-03-19T13:09:33.524Z,22.62
2023-03-19T13:11:46.433Z,22.72
2023-03-19T13:13:56.064Z,22.82
2023-03-19T13:16:04.958Z,22.90
2023-03-19T13:18:21.715Z,22.95
2023-03-19T13:20:31.959Z,22.95
2023-03-19T13:22:38.399Z,22.96
2023-03-19T13:24:42.908Z,22.98
2023-03-19T13:26:46.009Z,22.97
2023-03-19T13:29:00.747Z,23.04
2023-03-19T13:31:08.219Z,23.12
2023-03-19T13:33:21.517Z,23.19
2023-03-19T13:35:37.310Z,23.23
2023-03-19T13:37:43.153Z,23.28
2023-03-19T13:39:46.857Z,23.27
2023-03-19T13:41:52.007Z,23.20
2023-03-19T13:43:55.775Z,23.22
2023-03-19T13:46:21.728Z,23.24
2023-03-19T13:48:38.270Z,23.27
2023-03-19T13:50:54.452Z,23.29
2023-03-19T13:53:37.596Z,23.30
2023-03-19T13:55:51.507Z,23.23
2023-03-19T13:57:55.116Z,23.16
2023-03-19T14:00:16.278Z,23.10
2023-03-19T14:02:52.506Z,23.20
2023-03-19T14:05:00.267Z,23.21
2023-03-19T14:07:14.514Z,23.26
2023-03-19T14:09:33.998Z,23.23
2023-03-19T14:11:38.247Z,23.32
2023-03-19T14:13:43.139Z,23.35
2023-03-19T14:15:54.739Z,23.38
2023-03-19T14:18:01.578Z,23.37
2023-03-19T14:20:31.460Z,23.35
2023-03-19T14:22:40.517Z,23.26
2023-03-19T14:24:57.062Z,23.18
2023-03-19T14:27:03.279Z,23.07
2023-03-19T14:29:06.603Z,23.08
2023-03-19T14:31:21.738Z,23.09
2023-03-19T14:33:29.472Z,23.08
2023-03-19T14:35:36.325Z,22.98
2023-03-19T14:37:46.577Z,22.94
2023-03-19T14:39:54.263Z,22.86
2023-03-19T14:42:03.080Z,22.79
2023-03-19T14:44:34.060Z,22.71
2023-03-19T14:46:56.391Z,22.69
2023-03-19T14:49:26.829Z,22.68
2023-03-19T14:51:49.301Z,22.68
2023-03-19T14:53:55.623Z,22.64
2023-03-19T14:56:10.158Z,22.66
2023-03-19T14:58:13.221Z,22.68
2023-03-19T15:00:18.814Z,22.67
2023-03-19T15:02:33.883Z,22.67
2023-03-19T15:04:35.884Z,22.63
2023-03-19T15:06:40.085Z,22.58
2023-03-19T15:08:42.647Z,22.53
2023-03-19T15:10:58.946Z,22.47
2023-03-19T15:13:28.981Z,22.41
2023-03-19T15:15:50.617Z,22.32
2023-03-19T15:18:03.926Z,22.25
2023-03-19T15:20:18.622Z,22.18
2023-03-19T15:22:22.399Z,22.08
2023-03-19T15:24:24.367Z,22.02
2023-03-19T15:26:30.984Z,21.96
2023-03-19T15:28:45.970Z,21.91
2023-03-19T15:31:03.419Z,21.86
2023-03-19T15:33:36.868Z,21.79
2023-03-19T15:35:41.805Z,21.70
2023-03-19T15:37:49.655Z,21.63
2023-03-19T15:39:54.636Z,21.58
2023-03-19T15:41:57.282Z,21.50
2023-03-19T15:43:59.846Z,21.46
2023-03-19T15:46:02.830Z,21.39
2023-03-19T15:48:09.837Z,21.32
2023-03-19T15:50:19.143Z,21.26
2023-03-19T15:52:21.342Z,21.19
2023-03-19T15:54:23.697Z,21.12
2023-03-19T15:56:25.965Z,21.04
2023-03-19T15:58:30.743Z,20.99
2023-03-19T16:00:33.469Z,20.91
2023-03-19T16:02:36.880Z,20.83
2023-03-19T16:05:06.761Z,20.78
2023-03-19T16:07:02.914Z,20.71
2023-03-19T16:09:19.382Z,20.66
2023-03-19T16:11:35.943Z,20.58
2023-03-19T16:13:46.324Z,20.51
2023-03-19T16:15:53.666Z,20.44
2023-03-19T16:18:09.884Z,20.37
2023-03-19T16:20:14.658Z,20.29
2023-03-19T16:22:22.090Z,20.24
2023-03-19T16:24:27.521Z,20.18
2023-03-19T16:26:37.221Z,20.10
2023-03-19T16:28:45.151Z,20.04
2023-03-19T16:30:48.779Z,19.97
2023-03-19T16:33:09.039Z,19.91
2023-03-19T16:35:15.806Z,19.84
2023-03-19T16:37:34.855Z,19.78
2023-03-19T16:39:37.337Z,19.71
2023-03-19T16:41:43.861Z,19.66
2023-03-19T16:43:46.951Z,19.60
2023-03-19T16:46:04.847Z,19.56
2023-03-19T16:48:08.474Z,19.48
2023-03-19T16:50:13.238Z,19.40
2023-03-19T16:52:19.773Z,19.35
2023-03-19T16:54:23.019Z,19.30
2023-03-19T16:56:24.857Z,19.23
2023-03-19T16:58:29.990Z,19.17
2023-03-19T17:00:33.279Z,19.10
2023-03-19T17:02:35.001Z,19.04
2023-03-19T17:04:36.851Z,18.96
2023-03-19T17:06:38.592Z,18.91
2023-03-19T17:08:40.781Z,18.83
2023-03-19T17:10:48.100Z,18.77
2023-03-19T17:12:52.286Z,18.72
2023-03-19T17:14:54.116Z,18.65
2023-03-19T17:16:58.859Z,18.59
2023-03-19T17:19:00.655Z,18.54
2023-03-19T17:21:06.878Z,18.48
2023-03-19T17:23:10.696Z,18.42
2023-03-19T17:25:13.633Z,18.36
2023-03-19T17:27:16.534Z,18.32
2023-03-19T17:29:21.568Z,18.26
2023-03-19T17:31:26.017Z,18.20
2023-03-19T17:33:29.864Z,18.14
2023-03-19T17:35:33.148Z,18.10
2023-03-19T17:37:35.014Z,18.02
2023-03-19T17:39:36.657Z,17.95
2023-03-19T17:41:38.278Z,17.85
2023-03-19T17:43:44.468Z,17.78
2023-03-19T17:45:49.316Z,17.70
2023-03-19T17:47:54.004Z,17.61
2023-03-19T17:49:57.163Z,17.51
2023-03-19T17:51:59.271Z,17.42
2023-03-19T17:54:00.888Z,17.34
2023-03-19T17:56:02.922Z,17.26
2023-03-19T17:58:04.623Z,17.19
2023-03-19T18:00:10.699Z,17.12
2023-03-19T18:02:27.950Z,17.05
2023-03-19T18:04:29.743Z,16.96
2023-03-19T18:06:35.244Z,16.89
2023-03-19T18:08:37.059Z,16.80
2023-03-19T18:10:41.005Z,16.72
2023-03-19T18:12:43.502Z,16.64
2023-03-19T18:14:45.380Z,16.55
2023-03-19T18:16:51.106Z,16.48
2023-03-19T18:18:55.600Z,16.43
2023-03-19T18:20:59.512Z,16.38
2023-03-19T18:23:03.159Z,16.33
2023-03-19T18:25:06.029Z,16.29
2023-03-19T18:27:08.240Z,16.24
2023-03-19T18:29:09.855Z,16.21
2023-03-19T18:31:16.019Z,16.18
2023-03-19T18:33:25.848Z,16.14
2023-03-19T18:35:30.185Z,16.10
2023-03-19T18:37:34.549Z,16.04
2023-03-19T18:39:36.163Z,16.01
2023-03-19T18:41:37.775Z,15.97
2023-03-19T18:43:39.749Z,15.94
2023-03-19T18:45:42.383Z,15.88
2023-03-19T18:47:46.316Z,15.86
2023-03-19T18:49:49.321Z,15.81
2023-03-19T18:52:02.048Z,15.75
2023-03-19T18:54:04.502Z,15.72
2023-03-19T18:56:20.211Z,15.66
2023-03-19T18:58:24.713Z,15.63
2023-03-19T19:00:29.774Z,15.59
2023-03-19T19:02:34.216Z,15.58
2023-03-19T19:04:35.818Z,15.54
2023-03-19T19:06:47.201Z,15.51
2023-03-19T19:08:49.799Z,15.47
2023-03-19T19:10:54.138Z,15.44
2023-03-19T19:12:56.612Z,15.40
2023-03-19T19:14:59.206Z,15.37
2023-03-19T19:17:01.082Z,15.34
2023-03-19T19:19:03.515Z,15.30
2023-03-19T19:21:05.540Z,15.26
2023-03-19T19:23:09.777Z,15.23
2023-03-19T19:25:15.899Z,15.20
2023-03-19T19:27:20.451Z,15.15
2023-03-19T19:29:24.791Z,15.11
2023-03-19T19:31:29.007Z,15.10
2023-03-19T19:33:34.641Z,15.08
2023-03-19T19:35:36.468Z,15.06
2023-03-19T19:37:38.288Z,15.03
2023-03-19T19:39:41.390Z,14.99
2023-03-19T19:41:43.510Z,14.97
2023-03-19T19:43:46.427Z,14.92
2023-03-19T19:45:50.126Z,14.89
2023-03-19T19:47:52.220Z,14.87
2023-03-19T19:49:53.983Z,14.84
2023-03-19T19:51:56.143Z,14.81
2023-03-19T19:53:57.748Z,14.76
2023-03-19T19:56:06.713Z,14.70
2023-03-19T19:58:18.228Z,14.66
2023-03-19T20:00:23.111Z,14.61
2023-03-19T20:02:27.189Z,14.58
2023-03-19T20:04:30.580Z,14.57
2023-03-19T20:06:32.286Z,14.55
2023-03-19T20:08:34.292Z,14.54
2023-03-19T20:10:37.852Z,14.51
2023-03-19T20:12:49.218Z,14.50
2023-03-19T20:14:52.350Z,14.47
2023-03-19T20:16:54.456Z,14.46
2023-03-19T20:18:58.392Z,14.43
2023-03-19T20:21:02.038Z,14.40
2023-03-19T20:23:03.710Z,14.39
2023-03-19T20:25:07.265Z,14.37
2023-03-19T20:27:17.705Z,14.36
2023-03-19T20:29:20.826Z,14.32
2023-03-19T20:31:26.335Z,14.30
2023-03-19T20:33:29.367Z,14.26
2023-03-19T20:35:33.192Z,14.20
2023-03-19T20:37:34.987Z,14.16
2023-03-19T20:39:36.888Z,14.11
2023-03-19T20:41:38.877Z,14.08
2023-03-19T20:43:42.514Z,14.05
2023-03-19T20:45:45.872Z,14.02
2023-03-19T20:47:49.436Z,13.97
2023-03-19T20:49:51.314Z,13.94
2023-03-19T20:51:52.948Z,13.90
2023-03-19T20:53:54.658Z,13.87
2023-03-19T20:55:56.678Z,13.85
2023-03-19T20:57:58.926Z,13.82
2023-03-19T21:00:03.039Z,13.79
2023-03-19T21:02:16.199Z,13.79
2023-03-19T21:04:19.259Z,13.74
2023-03-19T21:06:23.031Z,13.73
2023-03-19T21:08:31.665Z,13.71
2023-03-19T21:10:38.179Z,13.68
2023-03-19T21:12:40.095Z,13.65
2023-03-19T21:14:41.922Z,13.61
2023-03-19T21:16:43.978Z,13.58
2023-03-19T21:18:47.498Z,13.55
2023-03-19T21:20:52.941Z,13.49
2023-03-19T21:23:01.175Z,13.45
2023-03-19T21:25:08.444Z,13.40
2023-03-19T21:27:18.353Z,13.36
2023-03-19T21:29:25.694Z,13.31
2023-03-19T21:31:28.555Z,13.29
2023-03-19T21:33:34.473Z,13.25
2023-03-19T21:35:38.101Z,13.21
2023-03-19T21:37:41.559Z,13.19
2023-03-19T21:39:46.693Z,13.16
2023-03-19T21:41:49.142Z,13.14
2023-03-19T21:43:54.929Z,13.13
2023-03-19T21:45:59.452Z,13.11
2023-03-19T21:48:21.569Z,13.10
2023-03-19T21:50:23.331Z,13.08
2023-03-19T21:52:26.339Z,13.07
2023-03-19T21:54:28.050Z,13.03
2023-03-19T21:56:34.265Z,13.02
2023-03-19T21:58:36.798Z,13.00
2023-03-19T22:00:39.025Z,13.01
2023-03-19T22:02:42.300Z,12.99
2023-03-19T22:04:44.082Z,12.98
2023-03-19T22:06:45.779Z,12.98
2023-03-19T22:08:48.862Z,12.96
2023-03-19T22:10:55.831Z,12.95
2023-03-19T22:12:57.704Z,12.92
2023-03-19T22:14:59.484Z,12.89
2023-03-19T22:17:01.125Z,12.86
2023-03-19T22:19:02.916Z,12.84
2023-03-19T22:21:05.187Z,12.82
2023-03-19T22:23:07.152Z,12.80
2023-03-19T22:25:11.720Z,12.78
2023-03-19T22:27:16.395Z,12.77
2023-03-19T22:29:21.261Z,12.76
2023-03-19T22:31:24.117Z,12.76
2023-03-19T22:33:30.627Z,12.74
2023-03-19T22:35:32.423Z,12.74
2023-03-19T22:37:34.025Z,12.72
2023-03-19T22:39:35.921Z,12.71
2023-03-19T22:41:41.808Z,12.69
2023-03-19T22:43:45.322Z,12.67
2023-03-19T22:45:55.055Z,12.65
2023-03-19T22:47:59.952Z,12.63
2023-03-19T22:50:01.549Z,12.59
2023-03-19T22:52:05.181Z,12.58
2023-03-19T22:54:08.071Z,12.55
2023-03-19T22:56:11.892Z,12.52
2023-03-19T22:58:16.004Z,12.49
2023-03-19T23:00:21.648Z,12.46
2023-03-19T23:02:26.980Z,12.42
2023-03-19T23:04:32.669Z,12.39
2023-03-19T23:06:34.401Z,12.34
2023-03-19T23:08:36.105Z,12.29
2023-03-19T23:10:38.528Z,12.25
2023-03-19T23:12:40.227Z,12.20
2023-03-19T23:14:43.208Z,12.16
2023-03-19T23:16:47.302Z,12.12
2023-03-19T23:18:49.787Z,12.08
2023-03-19T23:20:51.634Z,12.05
2023-03-19T23:22:54.327Z,12.02
2023-03-19T23:24:56.635Z,11.99
2023-03-19T23:27:00.284Z,11.95
2023-03-19T23:29:04.696Z,11.92
2023-03-19T23:31:09.547Z,11.89
2023-03-19T23:33:11.471Z,11.86
2023-03-19T23:35:16.005Z,11.84
2023-03-19T23:37:18.109Z,11.81
2023-03-19T23:39:20.320Z,11.79
2023-03-19T23:41:26.813Z,11.76
2023-03-19T23:43:29.080Z,11.71
2023-03-19T23:45:38.591Z,11.68
2023-03-19T23:47:41.680Z,11.64
2023-03-19T23:49:43.869Z,11.61
2023-03-19T23:51:45.501Z,11.58
2023-03-19T23:53:47.448Z,11.54
2023-03-19T23:55:51.127Z,11.51
2023-03-19T23:57:54.060Z,11.47
2023-03-19T23:59:55.804Z,11.45
